sensor_id;sensor_type;location;lat;lon;timestamp;temperature;humidity
70184;DHT22;57554;51.546;6.776;2023-09-07T00:01:05;19.90;65.50
70184;DHT22;57554;51.546;6.776;2023-09-07T00:03:31;19.90;65.50
70184;DHT22;57554;51.546;6.776;2023-09-07T00:05:57;19.90;65.50
70184;DHT22;57554;51.546;6.776;2023-09-07T00:08:22;19.80;65.70
70184;DHT22;57554;51.546;6.776;2023-09-07T00:10:49;19.80;65.80
70184;DHT22;57554;51.546;6.776;2023-09-07T00:13:14;19.80;65.80
70184;DHT22;57554;51.546;6.776;2023-09-07T00:15:40;19.70;65.90
70184;DHT22;57554;51.546;6.776;2023-09-07T00:18:06;19.70;65.90
70184;DHT22;57554;51.546;6.776;2023-09-07T00:20:31;19.70;65.90
70184;DHT22;57554;51.546;6.776;2023-09-07T00:23:00;19.60;66.00
70184;DHT22;57554;51.546;6.776;2023-09-07T00:25:26;19.60;66.20
70184;DHT22;57554;51.546;6.776;2023-09-07T00:27:51;19.60;66.40
70184;DHT22;57554;51.546;6.776;2023-09-07T00:30:17;19.60;66.40
70184;DHT22;57554;51.546;6.776;2023-09-07T00:32:43;19.50;66.40
70184;DHT22;57554;51.546;6.776;2023-09-07T00:35:08;19.50;66.50
70184;DHT22;57554;51.546;6.776;2023-09-07T00:37:34;19.50;66.50
70184;DHT22;57554;51.546;6.776;2023-09-07T00:40:00;19.50;66.60
70184;DHT22;57554;51.546;6.776;2023-09-07T00:42:25;19.50;66.80
70184;DHT22;57554;51.546;6.776;2023-09-07T00:44:51;19.40;66.60
70184;DHT22;57554;51.546;6.776;2023-09-07T00:47:17;19.40;66.60
70184;DHT22;57554;51.546;6.776;2023-09-07T00:49:43;19.40;66.60
70184;DHT22;57554;51.546;6.776;2023-09-07T00:52:09;19.30;66.60
70184;DHT22;57554;51.546;6.776;2023-09-07T00:54:36;19.30;66.60
70184;DHT22;57554;51.546;6.776;2023-09-07T00:57:04;19.30;66.80
70184;DHT22;57554;51.546;6.776;2023-09-07T00:59:30;19.20;66.70
70184;DHT22;57554;51.546;6.776;2023-09-07T01:01:57;19.20;66.80
70184;DHT22;57554;51.546;6.776;2023-09-07T01:04:22;19.20;66.80
70184;DHT22;57554;51.546;6.776;2023-09-07T01:07:14;19.20;66.80
70184;DHT22;57554;51.546;6.776;2023-09-07T01:09:42;19.10;67.00
70184;DHT22;57554;51.546;6.776;2023-09-07T01:12:14;19.10;67.00
70184;DHT22;57554;51.546;6.776;2023-09-07T01:14:40;19.10;67.00
70184;DHT22;57554;51.546;6.776;2023-09-07T01:17:06;19.10;66.90
70184;DHT22;57554;51.546;6.776;2023-09-07T01:19:32;19.10;67.00
70184;DHT22;57554;51.546;6.776;2023-09-07T01:21:59;19.10;66.90
70184;DHT22;57554;51.546;6.776;2023-09-07T01:24:26;19.00;66.80
70184;DHT22;57554;51.546;6.776;2023-09-07T01:26:54;19.00;67.00
70184;DHT22;57554;51.546;6.776;2023-09-07T01:29:20;19.00;67.00
70184;DHT22;57554;51.546;6.776;2023-09-07T01:31:45;19.00;67.10
70184;DHT22;57554;51.546;6.776;2023-09-07T01:34:11;19.00;67.00
70184;DHT22;57554;51.546;6.776;2023-09-07T01:36:37;19.00;67.00
70184;DHT22;57554;51.546;6.776;2023-09-07T01:39:04;18.90;67.10
70184;DHT22;57554;51.546;6.776;2023-09-07T01:41:31;18.90;67.30
70184;DHT22;57554;51.546;6.776;2023-09-07T01:43:56;18.90;67.20
70184;DHT22;57554;51.546;6.776;2023-09-07T01:46:22;18.90;67.20
70184;DHT22;57554;51.546;6.776;2023-09-07T01:48:48;18.80;67.30
70184;DHT22;57554;51.546;6.776;2023-09-07T01:51:13;18.80;67.60
70184;DHT22;57554;51.546;6.776;2023-09-07T01:53:39;18.80;67.70
70184;DHT22;57554;51.546;6.776;2023-09-07T01:56:04;18.80;67.70
70184;DHT22;57554;51.546;6.776;2023-09-07T01:58:30;18.70;67.50
70184;DHT22;57554;51.546;6.776;2023-09-07T02:00:58;18.70;67.60
70184;DHT22;57554;51.546;6.776;2023-09-07T02:03:25;18.70;67.80
70184;DHT22;57554;51.546;6.776;2023-09-07T02:05:52;18.60;67.90
70184;DHT22;57554;51.546;6.776;2023-09-07T02:08:18;18.60;68.00
70184;DHT22;57554;51.546;6.776;2023-09-07T02:10:44;18.60;68.00
70184;DHT22;57554;51.546;6.776;2023-09-07T02:13:10;18.60;68.10
70184;DHT22;57554;51.546;6.776;2023-09-07T02:15:39;18.60;68.10
70184;DHT22;57554;51.546;6.776;2023-09-07T02:18:05;18.50;67.90
70184;DHT22;57554;51.546;6.776;2023-09-07T02:20:32;18.50;68.00
70184;DHT22;57554;51.546;6.776;2023-09-07T02:22:58;18.50;68.10
70184;DHT22;57554;51.546;6.776;2023-09-07T02:25:23;18.50;68.00
70184;DHT22;57554;51.546;6.776;2023-09-07T02:27:49;18.40;68.10
70184;DHT22;57554;51.546;6.776;2023-09-07T02:30:15;18.40;68.20
70184;DHT22;57554;51.546;6.776;2023-09-07T02:32:42;18.40;68.20
70184;DHT22;57554;51.546;6.776;2023-09-07T02:35:08;18.30;68.60
70184;DHT22;57554;51.546;6.776;2023-09-07T02:37:35;18.30;68.60
70184;DHT22;57554;51.546;6.776;2023-09-07T02:40:01;18.30;68.70
70184;DHT22;57554;51.546;6.776;2023-09-07T02:42:29;18.30;68.80
70184;DHT22;57554;51.546;6.776;2023-09-07T02:44:54;18.20;68.80
70184;DHT22;57554;51.546;6.776;2023-09-07T02:47:20;18.20;68.80
70184;DHT22;57554;51.546;6.776;2023-09-07T02:49:46;18.20;68.80
70184;DHT22;57554;51.546;6.776;2023-09-07T02:52:12;18.20;68.80
70184;DHT22;57554;51.546;6.776;2023-09-07T02:54:38;18.20;68.80
70184;DHT22;57554;51.546;6.776;2023-09-07T02:57:03;18.10;68.80
70184;DHT22;57554;51.546;6.776;2023-09-07T02:59:29;18.10;68.90
70184;DHT22;57554;51.546;6.776;2023-09-07T03:01:54;18.10;68.80
70184;DHT22;57554;51.546;6.776;2023-09-07T03:04:20;18.10;68.80
70184;DHT22;57554;51.546;6.776;2023-09-07T03:06:45;18.10;68.80
70184;DHT22;57554;51.546;6.776;2023-09-07T03:09:11;18.00;69.00
70184;DHT22;57554;51.546;6.776;2023-09-07T03:11:37;18.00;69.10
70184;DHT22;57554;51.546;6.776;2023-09-07T03:14:02;18.00;69.20
70184;DHT22;57554;51.546;6.776;2023-09-07T03:16:28;18.00;69.10
70184;DHT22;57554;51.546;6.776;2023-09-07T03:18:55;18.00;69.00
70184;DHT22;57554;51.546;6.776;2023-09-07T03:21:20;17.90;69.00
70184;DHT22;57554;51.546;6.776;2023-09-07T03:23:52;17.90;69.10
70184;DHT22;57554;51.546;6.776;2023-09-07T03:26:17;17.90;69.10
70184;DHT22;57554;51.546;6.776;2023-09-07T03:28:43;17.80;69.00
70184;DHT22;57554;51.546;6.776;2023-09-07T03:31:08;17.80;69.10
70184;DHT22;57554;51.546;6.776;2023-09-07T03:33:34;17.70;69.10
70184;DHT22;57554;51.546;6.776;2023-09-07T03:35:59;17.70;69.10
70184;DHT22;57554;51.546;6.776;2023-09-07T03:38:25;17.70;69.10
70184;DHT22;57554;51.546;6.776;2023-09-07T03:40:50;17.60;69.20
70184;DHT22;57554;51.546;6.776;2023-09-07T03:43:17;17.70;69.30
70184;DHT22;57554;51.546;6.776;2023-09-07T03:45:42;17.60;69.40
70184;DHT22;57554;51.546;6.776;2023-09-07T03:48:08;17.60;69.60
70184;DHT22;57554;51.546;6.776;2023-09-07T03:50:34;17.60;69.50
70184;DHT22;57554;51.546;6.776;2023-09-07T03:53:01;17.60;69.50
70184;DHT22;57554;51.546;6.776;2023-09-07T03:55:26;17.50;69.50
70184;DHT22;57554;51.546;6.776;2023-09-07T03:57:52;17.50;69.60
70184;DHT22;57554;51.546;6.776;2023-09-07T04:00:17;17.50;69.60
70184;DHT22;57554;51.546;6.776;2023-09-07T04:02:44;17.50;69.60
70184;DHT22;57554;51.546;6.776;2023-09-07T04:05:10;17.50;69.80
70184;DHT22;57554;51.546;6.776;2023-09-07T04:07:38;17.50;69.80
70184;DHT22;57554;51.546;6.776;2023-09-07T04:10:05;17.50;69.80
70184;DHT22;57554;51.546;6.776;2023-09-07T04:12:30;17.40;69.70
70184;DHT22;57554;51.546;6.776;2023-09-07T04:14:56;17.40;69.80
70184;DHT22;57554;51.546;6.776;2023-09-07T04:17:22;17.40;69.80
70184;DHT22;57554;51.546;6.776;2023-09-07T04:19:48;17.40;69.80
70184;DHT22;57554;51.546;6.776;2023-09-07T04:22:13;17.40;69.80
70184;DHT22;57554;51.546;6.776;2023-09-07T04:24:39;17.30;69.80
70184;DHT22;57554;51.546;6.776;2023-09-07T04:27:04;17.30;69.80
70184;DHT22;57554;51.546;6.776;2023-09-07T04:29:30;17.30;69.80
70184;DHT22;57554;51.546;6.776;2023-09-07T04:31:56;17.30;70.00
70184;DHT22;57554;51.546;6.776;2023-09-07T04:34:22;17.30;70.20
70184;DHT22;57554;51.546;6.776;2023-09-07T04:36:48;17.30;70.20
70184;DHT22;57554;51.546;6.776;2023-09-07T04:39:13;17.20;70.30
70184;DHT22;57554;51.546;6.776;2023-09-07T04:41:42;17.20;70.20
70184;DHT22;57554;51.546;6.776;2023-09-07T04:44:07;17.20;70.20
70184;DHT22;57554;51.546;6.776;2023-09-07T04:46:33;17.20;70.20
70184;DHT22;57554;51.546;6.776;2023-09-07T04:48:59;17.20;70.20
70184;DHT22;57554;51.546;6.776;2023-09-07T04:51:24;17.10;70.20
70184;DHT22;57554;51.546;6.776;2023-09-07T04:53:51;17.10;70.30
70184;DHT22;57554;51.546;6.776;2023-09-07T04:56:17;17.10;70.20
70184;DHT22;57554;51.546;6.776;2023-09-07T04:58:43;17.10;70.30
70184;DHT22;57554;51.546;6.776;2023-09-07T05:01:10;17.10;70.30
70184;DHT22;57554;51.546;6.776;2023-09-07T05:03:36;17.10;70.50
70184;DHT22;57554;51.546;6.776;2023-09-07T05:06:03;17.10;70.50
70184;DHT22;57554;51.546;6.776;2023-09-07T05:08:29;17.10;70.50
70184;DHT22;57554;51.546;6.776;2023-09-07T05:10:56;17.10;70.50
70184;DHT22;57554;51.546;6.776;2023-09-07T05:13:22;17.10;70.60
70184;DHT22;57554;51.546;6.776;2023-09-07T05:15:49;17.10;70.70
70184;DHT22;57554;51.546;6.776;2023-09-07T05:18:15;17.10;70.60
70184;DHT22;57554;51.546;6.776;2023-09-07T05:20:40;17.10;70.60
70184;DHT22;57554;51.546;6.776;2023-09-07T05:23:06;17.10;70.80
70184;DHT22;57554;51.546;6.776;2023-09-07T05:25:31;17.10;70.90
70184;DHT22;57554;51.546;6.776;2023-09-07T05:27:57;17.10;71.00
70184;DHT22;57554;51.546;6.776;2023-09-07T05:30:23;17.10;71.00
70184;DHT22;57554;51.546;6.776;2023-09-07T05:32:48;17.10;71.10
70184;DHT22;57554;51.546;6.776;2023-09-07T05:35:14;17.10;71.00
70184;DHT22;57554;51.546;6.776;2023-09-07T05:37:42;17.10;71.00
70184;DHT22;57554;51.546;6.776;2023-09-07T05:40:08;17.20;71.10
70184;DHT22;57554;51.546;6.776;2023-09-07T05:42:33;17.20;71.10
70184;DHT22;57554;51.546;6.776;2023-09-07T05:44:59;17.20;71.20
70184;DHT22;57554;51.546;6.776;2023-09-07T05:47:25;17.20;71.20
70184;DHT22;57554;51.546;6.776;2023-09-07T05:49:51;17.30;71.20
70184;DHT22;57554;51.546;6.776;2023-09-07T05:52:17;17.40;71.30
70184;DHT22;57554;51.546;6.776;2023-09-07T05:54:42;17.60;71.40
70184;DHT22;57554;51.546;6.776;2023-09-07T05:57:08;17.70;71.40
70184;DHT22;57554;51.546;6.776;2023-09-07T05:59:34;17.90;71.30
70184;DHT22;57554;51.546;6.776;2023-09-07T06:02:00;18.10;71.20
70184;DHT22;57554;51.546;6.776;2023-09-07T06:04:25;18.30;71.00
70184;DHT22;57554;51.546;6.776;2023-09-07T06:06:51;18.50;70.80
70184;DHT22;57554;51.546;6.776;2023-09-07T06:09:17;18.70;70.70
70184;DHT22;57554;51.546;6.776;2023-09-07T06:11:42;18.90;70.50
70184;DHT22;57554;51.546;6.776;2023-09-07T06:14:08;19.10;70.30
70184;DHT22;57554;51.546;6.776;2023-09-07T06:16:34;19.30;70.20
70184;DHT22;57554;51.546;6.776;2023-09-07T06:19:00;19.50;70.00
70184;DHT22;57554;51.546;6.776;2023-09-07T06:21:25;19.70;69.70
70184;DHT22;57554;51.546;6.776;2023-09-07T06:23:51;19.90;69.50
70184;DHT22;57554;51.546;6.776;2023-09-07T06:26:17;20.10;69.20
70184;DHT22;57554;51.546;6.776;2023-09-07T06:28:43;20.30;69.10
70184;DHT22;57554;51.546;6.776;2023-09-07T06:31:08;20.50;68.90
70184;DHT22;57554;51.546;6.776;2023-09-07T06:33:34;20.70;68.60
70184;DHT22;57554;51.546;6.776;2023-09-07T06:36:00;20.90;68.10
70184;DHT22;57554;51.546;6.776;2023-09-07T06:38:27;21.10;67.50
70184;DHT22;57554;51.546;6.776;2023-09-07T06:40:53;21.30;67.30
70184;DHT22;57554;51.546;6.776;2023-09-07T06:43:19;21.40;66.80
70184;DHT22;57554;51.546;6.776;2023-09-07T06:45:44;21.60;66.70
70184;DHT22;57554;51.546;6.776;2023-09-07T06:48:10;21.80;66.50
70184;DHT22;57554;51.546;6.776;2023-09-07T06:50:35;22.00;66.30
70184;DHT22;57554;51.546;6.776;2023-09-07T06:53:01;22.20;65.50
70184;DHT22;57554;51.546;6.776;2023-09-07T06:55:28;22.40;64.40
70184;DHT22;57554;51.546;6.776;2023-09-07T06:57:54;22.60;63.70
70184;DHT22;57554;51.546;6.776;2023-09-07T07:00:21;22.80;63.20
70184;DHT22;57554;51.546;6.776;2023-09-07T07:02:46;23.00;62.10
70184;DHT22;57554;51.546;6.776;2023-09-07T07:05:12;23.20;61.20
70184;DHT22;57554;51.546;6.776;2023-09-07T07:07:38;23.40;60.00
70184;DHT22;57554;51.546;6.776;2023-09-07T07:10:04;23.70;59.60
70184;DHT22;57554;51.546;6.776;2023-09-07T07:12:30;23.90;59.40
70184;DHT22;57554;51.546;6.776;2023-09-07T07:15:00;24.10;58.40
70184;DHT22;57554;51.546;6.776;2023-09-07T07:17:25;24.20;57.40
70184;DHT22;57554;51.546;6.776;2023-09-07T07:19:51;24.40;56.90
70184;DHT22;57554;51.546;6.776;2023-09-07T07:22:16;24.50;56.30
70184;DHT22;57554;51.546;6.776;2023-09-07T07:24:42;24.70;56.20
70184;DHT22;57554;51.546;6.776;2023-09-07T07:27:08;24.90;55.40
70184;DHT22;57554;51.546;6.776;2023-09-07T07:29:34;25.10;54.70
70184;DHT22;57554;51.546;6.776;2023-09-07T07:31:59;25.30;54.30
70184;DHT22;57554;51.546;6.776;2023-09-07T07:34:25;25.50;53.90
70184;DHT22;57554;51.546;6.776;2023-09-07T07:36:50;25.70;52.60
70184;DHT22;57554;51.546;6.776;2023-09-07T07:39:16;25.80;52.70
70184;DHT22;57554;51.546;6.776;2023-09-07T07:41:41;26.00;52.20
70184;DHT22;57554;51.546;6.776;2023-09-07T07:44:07;26.20;52.80
70184;DHT22;57554;51.546;6.776;2023-09-07T07:46:33;26.50;53.30
70184;DHT22;57554;51.546;6.776;2023-09-07T07:48:59;26.70;52.10
70184;DHT22;57554;51.546;6.776;2023-09-07T07:51:24;26.90;50.60
70184;DHT22;57554;51.546;6.776;2023-09-07T07:53:53;27.10;50.30
70184;DHT22;57554;51.546;6.776;2023-09-07T07:56:18;27.30;48.70
70184;DHT22;57554;51.546;6.776;2023-09-07T07:58:44;27.50;48.60
70184;DHT22;57554;51.546;6.776;2023-09-07T08:01:17;27.70;47.50
70184;DHT22;57554;51.546;6.776;2023-09-07T08:03:43;27.90;47.70
70184;DHT22;57554;51.546;6.776;2023-09-07T08:06:10;28.10;48.60
70184;DHT22;57554;51.546;6.776;2023-09-07T08:08:36;28.30;47.40
70184;DHT22;57554;51.546;6.776;2023-09-07T08:11:02;28.40;46.10
70184;DHT22;57554;51.546;6.776;2023-09-07T08:13:34;28.50;45.80
70184;DHT22;57554;51.546;6.776;2023-09-07T08:16:03;28.70;45.60
70184;DHT22;57554;51.546;6.776;2023-09-07T08:18:29;28.90;45.00
70184;DHT22;57554;51.546;6.776;2023-09-07T08:20:57;29.00;44.70
70184;DHT22;57554;51.546;6.776;2023-09-07T08:23:23;29.20;44.70
70184;DHT22;57554;51.546;6.776;2023-09-07T08:25:51;29.50;44.40
70184;DHT22;57554;51.546;6.776;2023-09-07T08:28:16;29.70;44.30
70184;DHT22;57554;51.546;6.776;2023-09-07T08:30:44;29.90;44.00
70184;DHT22;57554;51.546;6.776;2023-09-07T08:33:10;30.20;42.70
70184;DHT22;57554;51.546;6.776;2023-09-07T08:35:35;30.40;42.60
70184;DHT22;57554;51.546;6.776;2023-09-07T08:38:03;30.60;42.00
70184;DHT22;57554;51.546;6.776;2023-09-07T08:40:31;30.80;41.20
70184;DHT22;57554;51.546;6.776;2023-09-07T08:43:03;31.00;41.80
70184;DHT22;57554;51.546;6.776;2023-09-07T08:45:29;31.10;42.10
70184;DHT22;57554;51.546;6.776;2023-09-07T08:47:57;31.20;41.20
70184;DHT22;57554;51.546;6.776;2023-09-07T08:50:24;31.30;41.20
70184;DHT22;57554;51.546;6.776;2023-09-07T08:52:52;31.40;40.30
70184;DHT22;57554;51.546;6.776;2023-09-07T08:55:17;31.50;40.60
70184;DHT22;57554;51.546;6.776;2023-09-07T08:57:43;31.60;40.90
70184;DHT22;57554;51.546;6.776;2023-09-07T09:00:09;31.70;41.40
70184;DHT22;57554;51.546;6.776;2023-09-07T09:02:41;31.90;40.10
70184;DHT22;57554;51.546;6.776;2023-09-07T09:05:09;32.10;39.20
70184;DHT22;57554;51.546;6.776;2023-09-07T09:07:34;32.20;39.30
70184;DHT22;57554;51.546;6.776;2023-09-07T09:10:07;32.40;39.50
70184;DHT22;57554;51.546;6.776;2023-09-07T09:12:33;32.60;38.20
70184;DHT22;57554;51.546;6.776;2023-09-07T09:15:00;32.70;38.00
70184;DHT22;57554;51.546;6.776;2023-09-07T09:17:29;32.90;37.50
70184;DHT22;57554;51.546;6.776;2023-09-07T09:19:54;33.00;36.70
70184;DHT22;57554;51.546;6.776;2023-09-07T09:22:21;33.00;36.60
70184;DHT22;57554;51.546;6.776;2023-09-07T09:24:49;33.10;37.10
70184;DHT22;57554;51.546;6.776;2023-09-07T09:27:15;33.30;37.80
70184;DHT22;57554;51.546;6.776;2023-09-07T09:29:40;33.50;37.20
70184;DHT22;57554;51.546;6.776;2023-09-07T09:32:07;33.70;36.10
70184;DHT22;57554;51.546;6.776;2023-09-07T09:34:33;33.80;35.70
70184;DHT22;57554;51.546;6.776;2023-09-07T09:37:00;33.90;35.90
70184;DHT22;57554;51.546;6.776;2023-09-07T09:39:26;34.00;35.30
70184;DHT22;57554;51.546;6.776;2023-09-07T09:41:52;34.20;35.60
70184;DHT22;57554;51.546;6.776;2023-09-07T09:44:21;34.40;35.30
70184;DHT22;57554;51.546;6.776;2023-09-07T09:46:47;34.50;34.20
70184;DHT22;57554;51.546;6.776;2023-09-07T09:49:14;34.60;34.10
70184;DHT22;57554;51.546;6.776;2023-09-07T09:51:40;34.70;33.30
70184;DHT22;57554;51.546;6.776;2023-09-07T09:54:09;34.80;33.60
70184;DHT22;57554;51.546;6.776;2023-09-07T09:56:34;34.90;33.60
70184;DHT22;57554;51.546;6.776;2023-09-07T09:59:00;35.00;33.50
70184;DHT22;57554;51.546;6.776;2023-09-07T10:01:26;35.20;33.10
70184;DHT22;57554;51.546;6.776;2023-09-07T10:03:53;35.30;33.00
70184;DHT22;57554;51.546;6.776;2023-09-07T10:06:24;35.50;32.90
70184;DHT22;57554;51.546;6.776;2023-09-07T10:09:03;35.60;32.60
70184;DHT22;57554;51.546;6.776;2023-09-07T10:11:32;35.80;32.60
70184;DHT22;57554;51.546;6.776;2023-09-07T10:14:00;35.90;32.70
70184;DHT22;57554;51.546;6.776;2023-09-07T10:16:26;36.10;32.60
70184;DHT22;57554;51.546;6.776;2023-09-07T10:18:53;36.20;32.80
70184;DHT22;57554;51.546;6.776;2023-09-07T10:21:18;36.40;32.50
70184;DHT22;57554;51.546;6.776;2023-09-07T10:23:45;36.50;31.10
70184;DHT22;57554;51.546;6.776;2023-09-07T10:26:16;36.50;30.70
70184;DHT22;57554;51.546;6.776;2023-09-07T10:28:45;36.50;30.90
70184;DHT22;57554;51.546;6.776;2023-09-07T10:31:15;36.50;31.60
70184;DHT22;57554;51.546;6.776;2023-09-07T10:33:41;36.60;32.30
70184;DHT22;57554;51.546;6.776;2023-09-07T10:36:07;36.70;32.30
70184;DHT22;57554;51.546;6.776;2023-09-07T10:38:33;36.70;31.00
70184;DHT22;57554;51.546;6.776;2023-09-07T10:41:04;36.70;30.80
70184;DHT22;57554;51.546;6.776;2023-09-07T10:43:31;36.80;30.80
70184;DHT22;57554;51.546;6.776;2023-09-07T10:45:58;36.90;30.10
70184;DHT22;57554;51.546;6.776;2023-09-07T10:48:24;36.80;30.50
70184;DHT22;57554;51.546;6.776;2023-09-07T10:50:51;36.80;30.50
70184;DHT22;57554;51.546;6.776;2023-09-07T10:53:28;36.80;30.70
70184;DHT22;57554;51.546;6.776;2023-09-07T10:55:56;36.70;30.50
70184;DHT22;57554;51.546;6.776;2023-09-07T10:58:32;36.60;30.90
70184;DHT22;57554;51.546;6.776;2023-09-07T11:00:59;36.50;30.30
70184;DHT22;57554;51.546;6.776;2023-09-07T11:03:25;36.40;31.10
70184;DHT22;57554;51.546;6.776;2023-09-07T11:05:55;36.20;30.90
70184;DHT22;57554;51.546;6.776;2023-09-07T11:08:22;36.00;31.20
70184;DHT22;57554;51.546;6.776;2023-09-07T11:10:50;35.80;31.40
70184;DHT22;57554;51.546;6.776;2023-09-07T11:13:16;35.70;32.20
70184;DHT22;57554;51.546;6.776;2023-09-07T11:15:42;35.70;31.80
70184;DHT22;57554;51.546;6.776;2023-09-07T11:18:08;35.60;31.60
70184;DHT22;57554;51.546;6.776;2023-09-07T11:20:37;35.50;32.50
70184;DHT22;57554;51.546;6.776;2023-09-07T11:23:05;35.50;31.70
70184;DHT22;57554;51.546;6.776;2023-09-07T11:25:36;35.40;31.60
70184;DHT22;57554;51.546;6.776;2023-09-07T11:28:03;35.20;31.70
70184;DHT22;57554;51.546;6.776;2023-09-07T11:30:29;35.10;31.70
70184;DHT22;57554;51.546;6.776;2023-09-07T11:33:05;35.10;32.60
70184;DHT22;57554;51.546;6.776;2023-09-07T11:35:31;35.20;32.70
70184;DHT22;57554;51.546;6.776;2023-09-07T11:37:58;35.20;32.40
70184;DHT22;57554;51.546;6.776;2023-09-07T11:40:24;35.20;32.70
70184;DHT22;57554;51.546;6.776;2023-09-07T11:42:49;35.20;33.00
70184;DHT22;57554;51.546;6.776;2023-09-07T11:45:15;35.30;31.90
70184;DHT22;57554;51.546;6.776;2023-09-07T11:47:41;35.30;31.70
70184;DHT22;57554;51.546;6.776;2023-09-07T11:50:07;35.40;32.30
70184;DHT22;57554;51.546;6.776;2023-09-07T11:52:33;35.50;32.00
70184;DHT22;57554;51.546;6.776;2023-09-07T11:54:58;35.60;32.30
70184;DHT22;57554;51.546;6.776;2023-09-07T11:57:24;35.80;31.90
70184;DHT22;57554;51.546;6.776;2023-09-07T11:59:50;35.90;31.60
70184;DHT22;57554;51.546;6.776;2023-09-07T12:02:15;35.90;31.30
70184;DHT22;57554;51.546;6.776;2023-09-07T12:04:43;35.90;31.80
70184;DHT22;57554;51.546;6.776;2023-09-07T12:07:08;35.90;31.50
70184;DHT22;57554;51.546;6.776;2023-09-07T12:09:34;36.00;31.80
70184;DHT22;57554;51.546;6.776;2023-09-07T12:11:59;36.00;31.70
70184;DHT22;57554;51.546;6.776;2023-09-07T12:14:25;36.20;33.30
70184;DHT22;57554;51.546;6.776;2023-09-07T12:16:50;36.30;31.40
70184;DHT22;57554;51.546;6.776;2023-09-07T12:19:16;36.30;31.90
70184;DHT22;57554;51.546;6.776;2023-09-07T12:21:42;36.30;31.70
70184;DHT22;57554;51.546;6.776;2023-09-07T12:24:08;36.20;31.60
70184;DHT22;57554;51.546;6.776;2023-09-07T12:26:34;36.00;32.00
70184;DHT22;57554;51.546;6.776;2023-09-07T12:28:59;35.90;32.80
70184;DHT22;57554;51.546;6.776;2023-09-07T12:31:25;35.90;31.30
70184;DHT22;57554;51.546;6.776;2023-09-07T12:33:51;35.80;31.70
70184;DHT22;57554;51.546;6.776;2023-09-07T12:36:17;35.80;31.60
70184;DHT22;57554;51.546;6.776;2023-09-07T12:38:43;35.70;31.00
70184;DHT22;57554;51.546;6.776;2023-09-07T12:41:08;35.60;31.40
70184;DHT22;57554;51.546;6.776;2023-09-07T12:43:34;35.40;31.70
70184;DHT22;57554;51.546;6.776;2023-09-07T12:45:59;35.30;32.10
70184;DHT22;57554;51.546;6.776;2023-09-07T12:48:25;35.20;32.60
70184;DHT22;57554;51.546;6.776;2023-09-07T12:50:51;35.20;32.60
70184;DHT22;57554;51.546;6.776;2023-09-07T12:53:16;35.10;32.40
70184;DHT22;57554;51.546;6.776;2023-09-07T12:55:43;35.00;33.10
70184;DHT22;57554;51.546;6.776;2023-09-07T12:58:08;35.00;32.80
70184;DHT22;57554;51.546;6.776;2023-09-07T13:00:34;34.90;33.00
70184;DHT22;57554;51.546;6.776;2023-09-07T13:03:00;34.80;33.10
70184;DHT22;57554;51.546;6.776;2023-09-07T13:05:25;34.70;33.20
70184;DHT22;57554;51.546;6.776;2023-09-07T13:07:51;34.60;33.40
70184;DHT22;57554;51.546;6.776;2023-09-07T13:10:17;34.60;33.50
70184;DHT22;57554;51.546;6.776;2023-09-07T13:12:44;34.50;33.60
70184;DHT22;57554;51.546;6.776;2023-09-07T13:15:09;34.50;33.70
70184;DHT22;57554;51.546;6.776;2023-09-07T13:17:35;34.50;33.20
70184;DHT22;57554;51.546;6.776;2023-09-07T13:20:00;34.40;33.10
70184;DHT22;57554;51.546;6.776;2023-09-07T13:22:26;34.30;33.20
70184;DHT22;57554;51.546;6.776;2023-09-07T13:24:52;34.30;33.20
70184;DHT22;57554;51.546;6.776;2023-09-07T13:27:17;34.30;32.50
70184;DHT22;57554;51.546;6.776;2023-09-07T13:29:43;34.20;32.70
70184;DHT22;57554;51.546;6.776;2023-09-07T13:32:09;34.20;32.90
70184;DHT22;57554;51.546;6.776;2023-09-07T13:34:34;34.30;33.50
70184;DHT22;57554;51.546;6.776;2023-09-07T13:37:00;34.30;33.10
70184;DHT22;57554;51.546;6.776;2023-09-07T13:39:25;34.30;33.10
70184;DHT22;57554;51.546;6.776;2023-09-07T13:41:51;34.40;33.30
70184;DHT22;57554;51.546;6.776;2023-09-07T13:44:17;34.40;32.80
70184;DHT22;57554;51.546;6.776;2023-09-07T13:46:43;34.40;32.90
70184;DHT22;57554;51.546;6.776;2023-09-07T13:49:09;34.40;32.70
70184;DHT22;57554;51.546;6.776;2023-09-07T13:51:35;34.40;32.80
70184;DHT22;57554;51.546;6.776;2023-09-07T13:54:07;34.40;32.30
70184;DHT22;57554;51.546;6.776;2023-09-07T13:56:33;34.40;32.10
70184;DHT22;57554;51.546;6.776;2023-09-07T13:59:00;34.40;32.40
70184;DHT22;57554;51.546;6.776;2023-09-07T14:01:25;34.40;31.60
70184;DHT22;57554;51.546;6.776;2023-09-07T14:03:51;34.40;32.30
70184;DHT22;57554;51.546;6.776;2023-09-07T14:06:17;34.40;31.50
70184;DHT22;57554;51.546;6.776;2023-09-07T14:08:43;34.40;31.20
70184;DHT22;57554;51.546;6.776;2023-09-07T14:11:09;34.40;31.80
70184;DHT22;57554;51.546;6.776;2023-09-07T14:13:35;34.50;31.80
70184;DHT22;57554;51.546;6.776;2023-09-07T14:16:01;34.50;32.00
70184;DHT22;57554;51.546;6.776;2023-09-07T14:18:27;34.40;32.20
70184;DHT22;57554;51.546;6.776;2023-09-07T14:20:52;34.40;32.00
70184;DHT22;57554;51.546;6.776;2023-09-07T14:23:18;34.40;32.00
70184;DHT22;57554;51.546;6.776;2023-09-07T14:25:46;34.40;32.30
70184;DHT22;57554;51.546;6.776;2023-09-07T14:28:13;34.50;31.90
70184;DHT22;57554;51.546;6.776;2023-09-07T14:30:39;34.40;32.20
70184;DHT22;57554;51.546;6.776;2023-09-07T14:33:05;34.30;32.10
70184;DHT22;57554;51.546;6.776;2023-09-07T14:35:31;34.20;33.10
70184;DHT22;57554;51.546;6.776;2023-09-07T14:37:56;34.20;33.10
70184;DHT22;57554;51.546;6.776;2023-09-07T14:40:22;34.20;33.90
70184;DHT22;57554;51.546;6.776;2023-09-07T14:42:49;34.20;33.60
70184;DHT22;57554;51.546;6.776;2023-09-07T14:45:16;34.20;34.40
70184;DHT22;57554;51.546;6.776;2023-09-07T14:47:42;34.10;34.60
70184;DHT22;57554;51.546;6.776;2023-09-07T14:50:08;34.10;34.90
70184;DHT22;57554;51.546;6.776;2023-09-07T14:52:34;34.00;35.40
70184;DHT22;57554;51.546;6.776;2023-09-07T14:55:08;34.00;35.40
70184;DHT22;57554;51.546;6.776;2023-09-07T14:57:34;33.90;36.30
70184;DHT22;57554;51.546;6.776;2023-09-07T15:00:00;33.90;36.20
70184;DHT22;57554;51.546;6.776;2023-09-07T15:02:26;33.90;36.90
70184;DHT22;57554;51.546;6.776;2023-09-07T15:04:51;33.90;36.30
70184;DHT22;57554;51.546;6.776;2023-09-07T15:07:17;33.80;35.90
70184;DHT22;57554;51.546;6.776;2023-09-07T15:09:44;33.70;36.20
70184;DHT22;57554;51.546;6.776;2023-09-07T15:12:09;33.60;36.40
70184;DHT22;57554;51.546;6.776;2023-09-07T15:14:36;33.60;36.60
70184;DHT22;57554;51.546;6.776;2023-09-07T15:17:02;33.50;37.10
70184;DHT22;57554;51.546;6.776;2023-09-07T15:19:27;33.50;37.10
70184;DHT22;57554;51.546;6.776;2023-09-07T15:21:53;33.50;37.00
70184;DHT22;57554;51.546;6.776;2023-09-07T15:24:18;33.50;36.50